Time;durP1;ratioP1;P1;durP2;ratioP2;P2;SDS_P1;SDS_P2;PMS_P1;PMS_P2;Temp;Humidity;BMP_temperature;BMP_pressure;BME280_temperature;BME280_humidity;BME280_pressure;Samples;Min_cycle;Max_cycle;Signal;HPM_P1;HPM_P2
2023/12/05 00:01:17;;;;;;;27.23;12.95;;;6.70;99.90;;;;;;4930306;29;20028;-92
2023/12/05 00:03:43;;;;;;;28.90;13.10;;;6.60;99.90;;;;;;4929140;29;20050;-89
2023/12/05 00:06:10;;;;;;;27.15;13.05;;;6.50;99.90;;;;;;4932359;28;20024;-90
2023/12/05 00:08:36;;;;;;;28.60;11.77;;;6.60;99.90;;;;;;4932495;29;20031;-89
2023/12/05 00:11:09;;;;;;;25.90;12.40;;;6.70;99.90;;;;;;4934158;29;20044;-91
2023/12/05 00:13:35;;;;;;;26.70;12.93;;;6.60;99.90;;;;;;4928766;28;20035;-91
2023/12/05 00:16:01;;;;;;;26.48;12.48;;;6.50;99.90;;;;;;4932413;29;20527;-91
2023/12/05 00:18:26;;;;;;;24.73;12.35;;;6.60;99.90;;;;;;4928906;29;20058;-90
2023/12/05 00:20:52;;;;;;;25.77;12.27;;;6.60;99.90;;;;;;4926100;29;20130;-90
2023/12/05 00:23:18;;;;;;;23.90;11.60;;;6.60;99.90;;;;;;4925670;28;20028;-91
2023/12/05 00:25:43;;;;;;;25.77;11.75;;;6.60;99.90;;;;;;4926793;29;20031;-90
2023/12/05 00:28:10;;;;;;;25.33;11.25;;;6.50;99.90;;;;;;4930249;29;20023;-91
2023/12/05 00:30:35;;;;;;;22.42;10.30;;;6.50;99.90;;;;;;4924673;28;20059;-90
2023/12/05 00:33:01;;;;;;;24.15;10.88;;;6.60;99.90;;;;;;4927785;28;20471;-91
2023/12/05 00:35:27;;;;;;;21.58;10.27;;;6.50;99.90;;;;;;4924862;28;20511;-90
2023/12/05 00:37:53;;;;;;;23.27;10.23;;;6.60;99.90;;;;;;4917003;29;20311;-89
2023/12/05 00:40:19;;;;;;;23.48;10.57;;;6.50;99.90;;;;;;4921384;28;20039;-90
2023/12/05 00:42:47;;;;;;;24.30;11.20;;;6.40;99.90;;;;;;4915694;28;20044;-89
2023/12/05 00:45:13;;;;;;;29.48;11.23;;;6.40;99.90;;;;;;4920718;29;20035;-89
2023/12/05 00:47:40;;;;;;;29.58;12.13;;;6.20;99.90;;;;;;4918362;29;20090;-89
2023/12/05 00:50:06;;;;;;;30.58;12.30;;;6.30;99.90;;;;;;4926259;29;20500;-88
2023/12/05 00:52:32;;;;;;;33.13;14.52;;;6.20;99.90;;;;;;4927798;29;20074;-90
2023/12/05 00:54:57;;;;;;;29.77;12.57;;;6.20;99.90;;;;;;4928561;29;20130;-91
2023/12/05 00:57:23;;;;;;;36.00;14.25;;;6.30;99.90;;;;;;4924325;28;20144;-89
2023/12/05 00:59:49;;;;;;;33.30;12.32;;;6.30;99.90;;;;;;4923877;28;20053;-90
2023/12/05 01:02:15;;;;;;;34.08;13.60;;;6.40;99.90;;;;;;4925322;29;20027;-88
2023/12/05 01:04:40;;;;;;;33.40;13.15;;;6.30;99.90;;;;;;4928942;29;21682;-90
2023/12/05 01:07:06;;;;;;;32.20;13.98;;;6.20;99.90;;;;;;4932152;28;20553;-90
2023/12/05 01:09:32;;;;;;;29.98;12.93;;;6.40;99.90;;;;;;4928730;28;20407;-89
2023/12/05 01:11:57;;;;;;;33.90;13.73;;;6.40;99.90;;;;;;4931206;29;20031;-89
2023/12/05 01:14:23;;;;;;;32.75;13.75;;;6.40;99.90;;;;;;4920114;28;20016;-89
2023/12/05 01:16:48;;;;;;;29.42;12.70;;;6.20;99.90;;;;;;4928510;28;20388;-90
2023/12/05 01:19:14;;;;;;;32.58;14.10;;;6.30;99.90;;;;;;4928256;29;20070;-89
2023/12/05 01:21:40;;;;;;;36.83;14.23;;;6.40;99.90;;;;;;4928443;29;20082;-90
2023/12/05 01:24:06;;;;;;;35.25;13.57;;;6.40;99.90;;;;;;4923237;29;20035;-90
2023/12/05 01:26:32;;;;;;;25.15;11.85;;;6.50;99.90;;;;;;4923191;29;20031;-90
2023/12/05 01:28:58;;;;;;;23.38;11.02;;;6.50;99.90;;;;;;4925579;28;20039;-90
2023/12/05 01:31:24;;;;;;;25.98;11.20;;;6.30;99.90;;;;;;4927181;29;20055;-90
2023/12/05 01:33:52;;;;;;;24.17;11.38;;;6.30;99.90;;;;;;4924378;29;20039;-89
2023/12/05 01:36:18;;;;;;;24.05;10.27;;;6.40;99.90;;;;;;4926186;29;20039;-90
2023/12/05 01:38:44;;;;;;;24.50;11.63;;;6.40;99.90;;;;;;4923601;28;20031;-89
2023/12/05 01:41:09;;;;;;;22.73;10.85;;;6.40;99.90;;;;;;4926409;28;20279;-90
2023/12/05 01:43:35;;;;;;;22.88;10.48;;;6.30;99.90;;;;;;4924072;28;20024;-88
2023/12/05 01:46:01;;;;;;;26.25;10.32;;;6.30;99.90;;;;;;4924834;28;20048;-90
2023/12/05 01:48:28;;;;;;;25.92;10.52;;;6.30;99.90;;;;;;4921035;28;20095;-89
2023/12/05 01:50:54;;;;;;;22.55;10.10;;;6.20;99.90;;;;;;4917088;28;20619;-89
2023/12/05 01:53:22;;;;;;;23.30;10.80;;;6.20;99.90;;;;;;4918047;28;20484;-91
2023/12/05 01:55:49;;;;;;;22.17;10.35;;;6.20;99.90;;;;;;4920901;29;20035;-89
2023/12/05 01:58:15;;;;;;;21.10;9.98;;;6.40;99.90;;;;;;4923759;28;20088;-90
2023/12/05 02:00:42;;;;;;;21.80;10.07;;;6.40;99.90;;;;;;4926664;28;20094;-88
2023/12/05 02:03:08;;;;;;;21.80;10.07;;;6.30;99.90;;;;;;4920598;28;20448;-90
2023/12/05 02:05:34;;;;;;;18.27;8.55;;;6.30;99.90;;;;;;4926999;29;20019;-91
2023/12/05 02:08:00;;;;;;;17.67;8.43;;;6.40;99.90;;;;;;4926261;29;20542;-91
2023/12/05 02:10:26;;;;;;;19.42;8.75;;;6.20;99.90;;;;;;4927012;29;20028;-91
2023/12/05 02:12:52;;;;;;;17.88;8.02;;;6.20;99.90;;;;;;4923653;28;20337;-90
2023/12/05 02:15:18;;;;;;;19.27;8.18;;;6.20;99.90;;;;;;4930731;29;20023;-90
2023/12/05 02:17:50;;;;;;;20.92;8.75;;;6.20;99.90;;;;;;4932597;28;20488;-90
2023/12/05 02:20:23;;;;;;;20.80;9.90;;;6.20;99.90;;;;;;4929059;28;20035;-91
2023/12/05 02:22:51;;;;;;;17.73;7.97;;;6.10;99.90;;;;;;4932742;28;20034;-89
2023/12/05 02:25:40;;;;;;;17.38;8.68;;;6.10;99.90;;;;;;4934997;28;20035;-89
2023/12/05 02:28:06;;;;;;;15.75;7.78;;;6.10;99.90;;;;;;4926961;29;20082;-89
2023/12/05 02:30:32;;;;;;;18.30;8.10;;;6.20;99.90;;;;;;4928979;28;20316;-90
2023/12/05 02:32:58;;;;;;;16.23;7.50;;;6.30;99.90;;;;;;4928466;29;20563;-90
2023/12/05 02:35:24;;;;;;;20.27;8.77;;;6.10;99.90;;;;;;4928616;28;20028;-90
2023/12/05 02:38:05;;;;;;;19.08;8.10;;;6.10;99.90;;;;;;4928029;29;20024;-89
2023/12/05 02:40:50;;;;;;;17.90;8.52;;;6.00;99.90;;;;;;4933571;28;20035;-89
2023/12/05 02:43:24;;;;;;;18.13;8.20;;;6.00;99.90;;;;;;4919165;28;20086;-89
2023/12/05 02:45:52;;;;;;;16.30;7.18;;;6.00;99.90;;;;;;4922016;28;20454;-89
2023/12/05 02:48:18;;;;;;;18.05;7.40;;;6.00;99.90;;;;;;4926257;29;20443;-89
2023/12/05 02:50:45;;;;;;;16.30;8.20;;;5.90;99.90;;;;;;4932820;29;20114;-89
2023/12/05 02:53:11;;;;;;;21.33;8.73;;;6.00;99.90;;;;;;4929438;28;20027;-90
2023/12/05 02:55:38;;;;;;;19.25;8.27;;;5.90;99.90;;;;;;4928966;29;20047;-89
2023/12/05 02:58:04;;;;;;;19.35;8.10;;;6.00;99.90;;;;;;4931836;28;20130;-89
2023/12/05 03:00:30;;;;;;;19.13;7.80;;;6.00;99.90;;;;;;4930910;28;20030;-89
2023/12/05 03:02:55;;;;;;;17.65;8.13;;;5.90;99.90;;;;;;4915737;28;20032;-90
2023/12/05 03:05:21;;;;;;;18.23;8.15;;;6.00;99.90;;;;;;4926456;28;20480;-90
2023/12/05 03:07:46;;;;;;;17.88;8.48;;;6.00;99.90;;;;;;4930614;29;20488;-88
2023/12/05 03:10:12;;;;;;;19.38;8.25;;;6.00;99.90;;;;;;4930407;29;20016;-88
2023/12/05 03:12:38;;;;;;;19.20;8.38;;;6.00;99.90;;;;;;4926914;29;20175;-88
2023/12/05 03:15:04;;;;;;;18.25;8.25;;;6.00;99.90;;;;;;4925094;29;20499;-90
2023/12/05 03:17:29;;;;;;;17.73;8.30;;;6.00;99.90;;;;;;4927410;29;20035;-88
2023/12/05 03:19:55;;;;;;;18.10;8.10;;;6.00;99.90;;;;;;4924870;28;20031;-90
2023/12/05 03:22:21;;;;;;;14.48;7.88;;;5.90;99.90;;;;;;4922680;28;20043;-88
2023/12/05 03:24:46;;;;;;;16.00;7.88;;;6.00;99.90;;;;;;4924591;28;20391;-87
2023/12/05 03:27:12;;;;;;;16.85;8.35;;;6.00;99.90;;;;;;4931122;29;20032;-90
2023/12/05 03:29:38;;;;;;;17.73;8.13;;;5.90;99.90;;;;;;4926376;29;20384;-89
2023/12/05 03:32:04;;;;;;;18.38;8.15;;;6.00;99.90;;;;;;4928238;28;20031;-88
2023/12/05 03:34:30;;;;;;;16.08;7.72;;;5.90;99.90;;;;;;4928549;28;20453;-88
2023/12/05 03:36:55;;;;;;;15.98;7.78;;;6.00;99.90;;;;;;4928663;29;20098;-88
2023/12/05 03:39:21;;;;;;;14.52;6.80;;;6.00;99.90;;;;;;4929629;29;20122;-89
2023/12/05 03:41:47;;;;;;;16.38;8.00;;;5.90;99.90;;;;;;4928440;29;20538;-88
2023/12/05 03:44:13;;;;;;;15.73;7.38;;;6.00;99.90;;;;;;4922993;29;20396;-89
2023/12/05 03:46:38;;;;;;;15.95;7.03;;;6.00;99.90;;;;;;4927673;29;20358;-89
2023/12/05 03:49:04;;;;;;;15.35;6.85;;;6.10;99.90;;;;;;4926501;29;20510;-87
2023/12/05 03:51:30;;;;;;;13.32;6.88;;;6.00;99.90;;;;;;4940513;28;20521;-90
2023/12/05 03:53:56;;;;;;;14.50;6.80;;;6.10;99.90;;;;;;4926545;29;20438;-89
2023/12/05 03:56:22;;;;;;;13.45;7.15;;;5.90;99.90;;;;;;4927768;28;20080;-88
2023/12/05 03:58:47;;;;;;;16.35;6.93;;;5.90;99.90;;;;;;4922361;29;20535;-89
2023/12/05 04:01:13;;;;;;;14.20;7.43;;;5.90;99.90;;;;;;4920677;28;20509;-89
2023/12/05 04:03:39;;;;;;;13.07;6.38;;;5.90;99.90;;;;;;4925654;29;20484;-89
2023/12/05 04:06:05;;;;;;;10.50;5.65;;;5.90;99.90;;;;;;4924795;29;20023;-89
2023/12/05 04:08:31;;;;;;;12.43;6.35;;;6.00;99.90;;;;;;4926987;29;20051;-89
2023/12/05 04:10:57;;;;;;;12.00;5.80;;;6.00;99.90;;;;;;4929820;28;20051;-89
2023/12/05 04:13:22;;;;;;;12.63;6.25;;;5.90;99.90;;;;;;4927732;28;20032;-88
2023/12/05 04:15:48;;;;;;;11.32;5.90;;;5.90;99.90;;;;;;4929683;29;20024;-88
2023/12/05 04:18:14;;;;;;;11.60;6.28;;;5.90;99.90;;;;;;4926450;29;20473;-88
2023/12/05 04:20:39;;;;;;;11.73;6.05;;;5.90;99.90;;;;;;4932246;28;20090;-88
2023/12/05 04:23:05;;;;;;;12.63;6.20;;;6.00;99.90;;;;;;4927666;28;20046;-89
2023/12/05 04:25:30;;;;;;;10.32;6.05;;;6.00;99.90;;;;;;4930456;29;20408;-89
2023/12/05 04:27:56;;;;;;;11.60;6.30;;;6.00;99.90;;;;;;4925158;29;20070;-89
2023/12/05 04:30:22;;;;;;;13.77;6.35;;;5.90;99.90;;;;;;4925805;29;20024;-89
2023/12/05 04:32:47;;;;;;;10.45;5.55;;;6.00;99.90;;;;;;4927722;29;20024;-88
2023/12/05 04:35:15;;;;;;;12.02;6.22;;;6.00;99.90;;;;;;4930008;29;20046;-89
2023/12/05 04:37:41;;;;;;;11.00;6.10;;;6.00;99.90;;;;;;4931987;29;20051;-89
2023/12/05 04:40:08;;;;;;;13.00;6.85;;;6.00;99.90;;;;;;4930011;29;20038;-89
2023/12/05 04:42:34;;;;;;;13.82;6.22;;;6.00;99.90;;;;;;4927610;29;20316;-90
2023/12/05 04:44:59;;;;;;;11.25;5.93;;;6.00;99.90;;;;;;4925992;28;20074;-89
2023/12/05 04:47:25;;;;;;;12.05;6.22;;;6.00;99.90;;;;;;4930293;29;20034;-89
2023/12/05 04:49:51;;;;;;;14.00;6.28;;;6.00;99.90;;;;;;4929073;28;20059;-89
2023/12/05 04:52:17;;;;;;;12.52;6.18;;;6.00;99.90;;;;;;4924079;28;20590;-89
2023/12/05 04:54:42;;;;;;;13.73;7.38;;;6.00;99.90;;;;;;4927161;28;20369;-89
2023/12/05 04:57:08;;;;;;;15.10;6.95;;;6.00;99.90;;;;;;4928880;28;20035;-88
2023/12/05 04:59:33;;;;;;;14.75;7.00;;;6.00;99.90;;;;;;4924422;29;20210;-88
2023/12/05 05:01:59;;;;;;;11.63;6.53;;;5.90;99.90;;;;;;4925666;29;20499;-89
2023/12/05 05:04:25;;;;;;;13.02;7.32;;;6.00;99.90;;;;;;4926140;28;20048;-88
2023/12/05 05:06:50;;;;;;;12.75;6.70;;;6.00;99.90;;;;;;4926099;29;20016;-88
2023/12/05 05:09:16;;;;;;;13.15;7.00;;;6.00;99.90;;;;;;4923176;29;20443;-89
2023/12/05 05:11:41;;;;;;;13.13;6.35;;;6.10;99.90;;;;;;4925169;29;20043;-88
2023/12/05 05:14:08;;;;;;;14.30;7.28;;;6.10;99.90;;;;;;4924905;29;20036;-88
2023/12/05 05:16:33;;;;;;;15.27;7.22;;;6.10;99.90;;;;;;4924476;29;20030;-88
2023/12/05 05:18:59;;;;;;;13.88;6.93;;;6.10;99.90;;;;;;4931977;29;20381;-87
2023/12/05 05:21:25;;;;;;;11.15;6.25;;;6.00;99.90;;;;;;4923496;29;20062;-88
2023/12/05 05:23:50;;;;;;;15.02;6.90;;;6.00;99.90;;;;;;4927031;28;20055;-89
2023/12/05 05:26:16;;;;;;;13.77;7.28;;;6.10;99.90;;;;;;4925466;29;20518;-88
2023/12/05 05:28:41;;;;;;;12.40;7.25;;;6.00;99.90;;;;;;4915954;29;20069;-89
2023/12/05 05:31:07;;;;;;;13.85;7.15;;;6.00;99.90;;;;;;4919230;28;20026;-89
2023/12/05 05:33:33;;;;;;;12.38;7.35;;;6.10;99.90;;;;;;4925710;29;20035;-90
2023/12/05 05:35:58;;;;;;;11.90;6.70;;;6.10;99.90;;;;;;4931446;28;20103;-91
2023/12/05 05:38:24;;;;;;;13.77;7.18;;;6.10;99.90;;;;;;4928463;29;20034;-91
2023/12/05 05:40:50;;;;;;;14.25;7.32;;;6.00;99.90;;;;;;4927757;29;20440;-90
2023/12/05 05:43:15;;;;;;;14.15;7.57;;;6.00;99.90;;;;;;4921975;29;20658;-89
2023/12/05 05:45:41;;;;;;;16.55;7.82;;;6.00;99.90;;;;;;4928761;28;20042;-89
2023/12/05 05:48:07;;;;;;;16.08;7.78;;;6.00;99.90;;;;;;4929444;28;20050;-89
2023/12/05 05:50:32;;;;;;;15.13;8.00;;;5.90;99.90;;;;;;4927422;29;20027;-89
2023/12/05 05:52:58;;;;;;;14.27;7.45;;;5.90;99.90;;;;;;4924500;29;20645;-90
2023/12/05 05:55:24;;;;;;;14.98;7.88;;;5.90;99.90;;;;;;4928385;28;20433;-89
2023/12/05 05:57:51;;;;;;;14.60;7.88;;;5.90;99.90;;;;;;4925793;29;20118;-90
2023/12/05 06:00:17;;;;;;;16.95;8.48;;;5.90;99.90;;;;;;4924999;28;20488;-90
2023/12/05 06:02:44;;;;;;;14.55;7.55;;;5.90;99.90;;;;;;4924636;29;20038;-90
2023/12/05 06:05:09;;;;;;;14.30;6.80;;;5.90;99.90;;;;;;4925118;28;20024;-90
2023/12/05 06:07:36;;;;;;;13.70;6.95;;;5.90;99.90;;;;;;4925724;29;20031;-89
2023/12/05 06:10:03;;;;;;;14.95;7.53;;;5.80;99.90;;;;;;4925997;29;20039;-90
2023/12/05 06:12:29;;;;;;;13.95;6.43;;;5.90;99.90;;;;;;4926120;28;20182;-90
2023/12/05 06:14:55;;;;;;;13.27;7.50;;;5.80;99.90;;;;;;4930118;28;20076;-90
2023/12/05 06:17:20;;;;;;;16.65;7.80;;;5.80;99.90;;;;;;4925080;28;20023;-88
2023/12/05 06:19:46;;;;;;;16.30;8.05;;;5.80;99.90;;;;;;4929512;29;20035;-88
2023/12/05 06:22:12;;;;;;;17.08;7.45;;;5.80;99.90;;;;;;4930736;28;20023;-89
2023/12/05 06:24:38;;;;;;;15.77;7.40;;;5.80;99.90;;;;;;4924306;28;22070;-90
2023/12/05 06:27:04;;;;;;;12.82;7.15;;;5.80;99.90;;;;;;4921917;28;20052;-91
2023/12/05 06:29:30;;;;;;;15.25;7.50;;;5.70;99.90;;;;;;4925302;29;20062;-90
2023/12/05 07:27:32;;;;;;;18.55;8.80;;;5.70;99.90;;;;;;4908219;29;20039;-88
2023/12/05 07:29:58;;;;;;;21.25;9.48;;;5.80;99.90;;;;;;4902794;29;20039;-88
2023/12/05 07:32:24;;;;;;;20.65;10.13;;;5.80;99.90;;;;;;4910017;29;20044;-86
2023/12/05 07:35:02;;;;;;;18.38;9.00;;;5.80;99.90;;;;;;4910042;29;20039;-87
2023/12/05 07:37:39;;;;;;;18.88;9.77;;;5.90;99.90;;;;;;4906681;29;20036;-86
2023/12/05 07:40:06;;;;;;;20.73;10.40;;;5.80;99.90;;;;;;4910679;29;20095;-87
2023/12/05 07:42:32;;;;;;;18.30;9.82;;;5.90;99.90;;;;;;4909495;29;20125;-88
2023/12/05 07:44:58;;;;;;;17.88;8.93;;;6.00;99.90;;;;;;4907895;29;20416;-89
2023/12/05 07:47:24;;;;;;;18.42;9.60;;;6.00;99.90;;;;;;4905905;29;20028;-88
2023/12/05 07:49:50;;;;;;;19.27;9.57;;;6.00;99.90;;;;;;4905065;29;20040;-89
2023/12/05 07:52:16;;;;;;;19.77;9.65;;;5.90;99.90;;;;;;4901696;29;20035;-89
2023/12/05 14:57:53;;;;;;;11.15;5.55;;;7.00;99.90;;;;;;4952757;23;20051;-87
2023/12/05 15:00:20;;;;;;;12.60;5.80;;;7.00;99.90;;;;;;4924575;28;20218;-86
2023/12/05 15:02:45;;;;;;;12.57;6.18;;;6.80;99.90;;;;;;4916875;28;20039;-85
2023/12/05 15:05:11;;;;;;;11.35;5.60;;;6.80;99.90;;;;;;4908963;29;20032;-85
2023/12/05 15:07:37;;;;;;;16.60;6.20;;;6.80;99.90;;;;;;4904600;29;20388;-82
2023/12/05 15:10:03;;;;;;;16.40;6.70;;;6.80;99.90;;;;;;4904005;29;20349;-87
2023/12/05 15:12:29;;;;;;;12.43;5.97;;;6.90;99.90;;;;;;4898312;29;20050;-86
2023/12/05 15:14:54;;;;;;;11.13;5.93;;;7.00;99.90;;;;;;4899792;29;20035;-84
2023/12/05 15:17:20;;;;;;;17.73;6.57;;;7.10;99.90;;;;;;4899834;29;20032;-87
2023/12/05 15:19:45;;;;;;;14.55;6.20;;;7.10;99.90;;;;;;4901628;29;20020;-84
2023/12/05 15:22:11;;;;;;;13.00;5.50;;;7.10;99.90;;;;;;4901221;29;20047;-84
2023/12/05 15:24:37;;;;;;;10.88;6.05;;;7.20;99.90;;;;;;4893763;29;20028;-84
2023/12/05 15:27:03;;;;;;;9.80;5.10;;;7.10;99.90;;;;;;4899374;29;20032;-90
2023/12/05 15:29:28;;;;;;;12.68;5.70;;;7.10;99.90;;;;;;4889509;29;20699;-84
2023/12/05 15:31:56;;;;;;;13.70;5.20;;;6.90;99.90;;;;;;4899435;29;20487;-83
2023/12/05 15:34:21;;;;;;;12.45;5.78;;;6.80;99.90;;;;;;4901726;29;20040;-83
2023/12/05 15:36:47;;;;;;;12.00;5.00;;;6.80;99.90;;;;;;4901633;29;20024;-83
2023/12/05 15:39:14;;;;;;;9.90;4.75;;;6.70;99.90;;;;;;4904520;29;20039;-83
2023/12/05 15:41:39;;;;;;;9.70;5.22;;;6.60;99.90;;;;;;4905438;29;20495;-83
2023/12/05 15:44:05;;;;;;;12.20;4.90;;;6.60;99.90;;;;;;4906931;29;20036;-83
2023/12/05 15:46:31;;;;;;;12.00;5.10;;;6.60;99.90;;;;;;4904226;29;20404;-83
2023/12/05 15:48:57;;;;;;;13.43;5.43;;;6.60;99.90;;;;;;4901195;29;20016;-83
2023/12/05 15:51:23;;;;;;;11.40;5.45;;;6.60;99.90;;;;;;4900730;29;20504;-82
2023/12/05 15:53:48;;;;;;;13.82;5.38;;;6.60;99.90;;;;;;4897445;29;20039;-82
2023/12/05 15:56:14;;;;;;;12.38;5.78;;;6.50;99.90;;;;;;4900714;29;20048;-84
2023/12/05 15:58:41;;;;;;;11.35;6.30;;;6.40;99.90;;;;;;4898143;29;20041;-84
2023/12/05 16:01:07;;;;;;;13.57;5.97;;;6.50;99.90;;;;;;4894546;29;20033;-86
2023/12/05 16:03:33;;;;;;;9.85;5.20;;;6.60;99.90;;;;;;4900053;29;20039;-83
2023/12/05 16:05:59;;;;;;;15.45;6.00;;;6.70;99.90;;;;;;4897691;29;20080;-84
2023/12/05 16:08:25;;;;;;;17.45;5.80;;;6.70;99.90;;;;;;4900396;29;20017;-85
2023/12/05 16:10:52;;;;;;;9.75;4.57;;;6.60;99.90;;;;;;4897965;29;20032;-84
2023/12/05 16:13:19;;;;;;;7.88;4.15;;;6.60;99.90;;;;;;4902039;29;20024;-83
2023/12/05 16:15:45;;;;;;;7.07;3.70;;;6.50;99.90;;;;;;4906802;29;20154;-85
2023/12/05 16:18:11;;;;;;;6.45;3.38;;;6.50;99.90;;;;;;4908514;29;20828;-84
2023/12/05 16:20:36;;;;;;;7.10;3.10;;;6.40;99.90;;;;;;4905990;29;20032;-81
2023/12/05 16:23:02;;;;;;;7.60;2.97;;;6.30;99.90;;;;;;4899996;29;20440;-81
2023/12/05 16:25:27;;;;;;;7.53;2.40;;;6.10;99.90;;;;;;4891593;29;20341;-82
2023/12/05 16:27:53;;;;;;;5.53;2.33;;;6.20;99.90;;;;;;4880400;29;20126;-82
2023/12/05 16:30:18;;;;;;;3.78;2.28;;;6.20;99.90;;;;;;4889804;29;20040;-82
2023/12/05 16:32:44;;;;;;;4.63;2.53;;;6.10;99.90;;;;;;4900642;29;20040;-82
2023/12/05 16:35:10;;;;;;;6.50;2.65;;;6.10;99.90;;;;;;4901487;29;20665;-83
2023/12/05 16:37:37;;;;;;;6.10;3.35;;;6.10;99.90;;;;;;4904224;29;20040;-83
2023/12/05 16:40:04;;;;;;;6.47;3.17;;;6.10;99.90;;;;;;4901356;29;20043;-84
2023/12/05 16:42:30;;;;;;;4.82;2.90;;;6.10;99.90;;;;;;4909460;29;20074;-83
2023/12/05 16:44:55;;;;;;;6.93;2.70;;;5.90;99.90;;;;;;4919483;29;20108;-83
2023/12/05 16:47:21;;;;;;;3.92;2.17;;;5.80;99.90;;;;;;4926248;29;20036;-85
2023/12/05 16:49:47;;;;;;;4.03;2.28;;;5.90;99.90;;;;;;4936396;28;20027;-84
2023/12/05 16:52:12;;;;;;;8.68;2.30;;;5.90;99.90;;;;;;4927771;28;20032;-81
2023/12/05 16:54:38;;;;;;;3.80;2.67;;;6.00;99.90;;;;;;4928761;29;20036;-80
2023/12/05 16:57:04;;;;;;;5.35;2.60;;;6.00;99.90;;;;;;4901970;29;20143;-80
2023/12/05 16:59:30;;;;;;;5.65;3.10;;;6.00;99.90;;;;;;4903970;29;20051;-80
2023/12/05 17:01:56;;;;;;;6.32;2.78;;;6.00;99.90;;;;;;4902705;29;20443;-80
2023/12/05 17:04:21;;;;;;;8.07;3.08;;;6.00;99.90;;;;;;4903762;29;20039;-80
2023/12/05 17:06:47;;;;;;;6.13;2.85;;;5.90;99.90;;;;;;4906418;29;20551;-81
2023/12/05 17:09:18;;;;;;;8.02;2.97;;;5.90;99.90;;;;;;4903236;29;20575;-81
2023/12/05 17:11:44;;;;;;;5.68;2.53;;;6.00;99.90;;;;;;4905776;29;20103;-80
2023/12/05 17:14:10;;;;;;;4.25;2.97;;;6.10;99.90;;;;;;4904877;29;20034;-80
2023/12/05 17:16:35;;;;;;;19.05;10.95;;;6.00;99.90;;;;;;4907886;29;20020;-81
2023/12/05 17:19:01;;;;;;;29.33;17.45;;;6.00;99.90;;;;;;4906090;29;20468;-78
2023/12/05 17:21:27;;;;;;;12.93;8.25;;;5.80;99.90;;;;;;4907623;29;20171;-81
2023/12/05 17:23:54;;;;;;;16.88;11.95;;;5.70;99.90;;;;;;4906075;29;20547;-79
2023/12/05 17:26:20;;;;;;;23.27;11.93;;;5.60;99.90;;;;;;4894098;29;20028;-82
2023/12/05 17:28:47;;;;;;;28.33;16.83;;;5.40;99.90;;;;;;4893426;29;20496;-80
2023/12/05 17:31:13;;;;;;;21.17;11.80;;;5.40;99.90;;;;;;4904113;29;20619;-82
2023/12/05 17:33:38;;;;;;;29.52;13.85;;;5.30;99.90;;;;;;4908494;29;20115;-89
2023/12/05 17:36:05;;;;;;;18.45;9.45;;;5.40;99.90;;;;;;4911781;29;20020;-86
2023/12/05 17:38:31;;;;;;;19.50;10.98;;;5.40;99.90;;;;;;4910565;29;20032;-90
2023/12/05 17:40:56;;;;;;;29.05;16.45;;;5.40;99.90;;;;;;4891827;29;20384;-87
2023/12/05 17:43:24;;;;;;;25.58;14.38;;;5.60;99.90;;;;;;4909154;29;20310;-88
2023/12/05 17:45:50;;;;;;;17.42;8.25;;;5.70;99.90;;;;;;4907133;29;20182;-86
2023/12/05 17:48:15;;;;;;;15.88;9.55;;;5.80;99.90;;;;;;4916253;29;20534;-84
2023/12/05 17:50:41;;;;;;;10.88;6.65;;;5.70;99.90;;;;;;4908889;29;20511;-87
2023/12/05 17:53:07;;;;;;;15.00;7.45;;;5.70;99.90;;;;;;4903008;29;20123;-85
2023/12/05 17:55:32;;;;;;;11.68;7.82;;;5.60;99.90;;;;;;4910965;29;20299;-86
2023/12/05 17:57:58;;;;;;;13.82;7.68;;;5.60;99.90;;;;;;4906939;29;20331;-88
2023/12/05 18:00:24;;;;;;;16.48;7.43;;;5.50;99.90;;;;;;4907701;29;20032;-86
2023/12/05 18:02:50;;;;;;;13.85;7.55;;;5.40;99.90;;;;;;4909673;29;20040;-88
2023/12/05 18:05:15;;;;;;;12.90;6.85;;;5.20;99.90;;;;;;4912930;29;20032;-89
2023/12/05 18:07:42;;;;;;;13.82;6.95;;;5.30;99.90;;;;;;4917063;29;20024;-88
2023/12/05 18:10:08;;;;;;;12.48;6.57;;;5.30;99.90;;;;;;4911272;29;20044;-85
2023/12/05 18:12:33;;;;;;;14.07;7.13;;;5.20;99.90;;;;;;4910473;29;20031;-87
2023/12/05 18:14:59;;;;;;;13.90;7.25;;;5.30;99.90;;;;;;4907654;29;20457;-88
2023/12/05 18:17:25;;;;;;;13.57;6.95;;;5.30;99.90;;;;;;4912858;29;20046;-83
2023/12/05 18:19:51;;;;;;;12.15;6.95;;;5.50;99.90;;;;;;4904244;29;20044;-84
2023/12/05 18:22:18;;;;;;;13.45;6.50;;;5.50;99.90;;;;;;4907978;29;20493;-85
2023/12/05 18:24:44;;;;;;;14.43;6.40;;;5.40;99.90;;;;;;4904372;29;20039;-82
2023/12/05 18:27:11;;;;;;;11.20;6.80;;;5.50;99.90;;;;;;4905006;29;20559;-84
2023/12/05 18:29:39;;;;;;;13.00;7.07;;;5.50;99.90;;;;;;4895863;29;20096;-84
2023/12/05 18:32:05;;;;;;;12.57;6.53;;;5.40;99.90;;;;;;4900387;29;20066;-82
2023/12/05 18:34:31;;;;;;;20.08;7.22;;;5.30;99.90;;;;;;4903670;29;20352;-83
2023/12/05 18:36:56;;;;;;;16.42;7.40;;;5.30;99.90;;;;;;4909001;29;20445;-83
2023/12/05 18:39:22;;;;;;;20.52;8.32;;;5.30;99.90;;;;;;4907897;29;20119;-83
2023/12/05 18:41:48;;;;;;;18.40;7.68;;;5.30;99.90;;;;;;4904638;29;20234;-82
2023/12/05 18:44:14;;;;;;;19.42;8.55;;;5.30;99.90;;;;;;4902795;29;20051;-82
2023/12/05 18:46:40;;;;;;;14.77;7.35;;;5.20;99.90;;;;;;4908591;29;20028;-82
2023/12/05 18:49:05;;;;;;;13.55;7.25;;;5.30;99.90;;;;;;4894469;29;20412;-82
2023/12/05 18:51:32;;;;;;;13.45;7.30;;;5.30;99.90;;;;;;4905530;29;20048;-83
2023/12/05 18:53:58;;;;;;;16.05;8.85;;;5.20;99.90;;;;;;4921807;29;20095;-82
2023/12/05 18:56:24;;;;;;;15.77;8.05;;;5.20;99.90;;;;;;4923610;29;20029;-82
2023/12/05 18:58:49;;;;;;;15.50;7.72;;;5.20;99.90;;;;;;4929280;29;20047;-83
2023/12/05 19:01:15;;;;;;;14.88;7.22;;;5.20;99.90;;;;;;4918407;29;20064;-82
2023/12/05 19:03:41;;;;;;;14.10;8.20;;;5.30;99.90;;;;;;4910332;29;20475;-84
2023/12/05 19:06:08;;;;;;;15.43;7.53;;;5.20;99.90;;;;;;4910341;29;20088;-82
2023/12/05 19:08:34;;;;;;;15.10;8.23;;;5.30;99.90;;;;;;4912589;29;20349;-82
2023/12/05 19:11:04;;;;;;;21.55;9.30;;;5.20;99.90;;;;;;4903899;29;20028;-84
2023/12/05 19:13:30;;;;;;;18.75;8.88;;;5.10;99.90;;;;;;4903304;29;20037;-83
2023/12/05 19:15:56;;;;;;;19.10;8.52;;;5.10;99.90;;;;;;4902727;29;20120;-84
2023/12/05 19:18:22;;;;;;;16.58;7.68;;;5.00;99.90;;;;;;4909924;29;20103;-83
2023/12/05 19:20:47;;;;;;;16.90;7.30;;;5.00;99.90;;;;;;4902805;29;20047;-83
2023/12/05 19:23:13;;;;;;;17.20;7.18;;;5.00;99.90;;;;;;4917742;29;20059;-81
2023/12/05 19:25:39;;;;;;;13.88;7.32;;;4.90;99.90;;;;;;4908439;29;20188;-82
2023/12/05 19:28:05;;;;;;;15.73;7.50;;;4.90;99.90;;;;;;4903201;29;20067;-83
2023/12/05 19:30:30;;;;;;;16.80;7.25;;;4.90;99.90;;;;;;4905618;29;20135;-84
2023/12/05 19:32:57;;;;;;;18.02;7.57;;;4.90;99.90;;;;;;4913122;29;20044;-82
2023/12/05 19:35:23;;;;;;;13.35;6.47;;;4.90;99.90;;;;;;4911802;29;20095;-81
2023/12/05 19:37:51;;;;;;;14.07;6.68;;;5.00;99.90;;;;;;4913630;29;20267;-82
2023/12/05 19:40:17;;;;;;;12.82;6.22;;;4.90;99.90;;;;;;4905610;29;20140;-83
2023/12/05 19:42:44;;;;;;;17.65;8.07;;;4.90;99.90;;;;;;4907313;29;20572;-83
2023/12/05 19:45:10;;;;;;;12.95;6.45;;;5.00;99.90;;;;;;4908039;29;20027;-83
2023/12/05 19:47:36;;;;;;;11.35;6.07;;;5.00;99.90;;;;;;4912640;29;20483;-82
2023/12/05 19:50:02;;;;;;;13.70;6.15;;;5.10;99.90;;;;;;4905686;29;20285;-83
2023/12/05 19:52:28;;;;;;;12.73;5.90;;;5.00;99.90;;;;;;4901433;29;20032;-83
2023/12/05 19:54:57;;;;;;;11.02;5.90;;;5.10;99.90;;;;;;4898601;29;20027;-83
2023/12/05 19:57:22;;;;;;;12.88;5.35;;;5.20;99.90;;;;;;4902520;29;20060;-83
2023/12/05 19:59:48;;;;;;;13.15;6.00;;;5.30;99.90;;;;;;4897824;29;20535;-83
2023/12/05 20:02:14;;;;;;;13.27;6.20;;;5.40;99.90;;;;;;4904811;29;20169;-83
2023/12/05 20:04:40;;;;;;;12.00;5.80;;;5.50;99.90;;;;;;4909806;29;21650;-83
2023/12/05 20:07:06;;;;;;;12.10;6.32;;;5.60;99.90;;;;;;4909672;29;20512;-83
2023/12/05 20:09:32;;;;;;;9.85;6.35;;;5.70;99.90;;;;;;4906989;29;20028;-82
2023/12/05 20:11:58;;;;;;;12.18;6.00;;;5.80;99.90;;;;;;4908589;29;20036;-82
2023/12/05 20:14:24;;;;;;;12.23;7.20;;;5.80;99.90;;;;;;4909826;29;20036;-81
2023/12/05 20:16:49;;;;;;;12.13;5.88;;;5.90;99.90;;;;;;4904038;29;20031;-82
2023/12/05 20:19:18;;;;;;;12.80;6.95;;;5.80;99.90;;;;;;4909092;29;20040;-82
2023/12/05 20:21:43;;;;;;;15.23;7.32;;;5.90;99.90;;;;;;4904472;29;20132;-82
2023/12/05 20:24:11;;;;;;;12.70;6.47;;;5.90;99.90;;;;;;4904343;29;20036;-82
2023/12/05 20:26:37;;;;;;;13.07;6.65;;;5.90;99.90;;;;;;4904695;29;20032;-82
2023/12/05 20:29:03;;;;;;;16.25;7.85;;;5.90;99.90;;;;;;4907052;29;20074;-82
2023/12/05 20:31:29;;;;;;;16.65;8.02;;;5.90;99.90;;;;;;4900855;29;20337;-84
2023/12/05 20:33:54;;;;;;;13.95;7.68;;;5.90;99.90;;;;;;4905620;29;20036;-83
2023/12/05 20:36:20;;;;;;;16.08;8.57;;;5.90;99.90;;;;;;4910066;29;20475;-82
2023/12/05 20:38:45;;;;;;;16.70;7.95;;;5.90;99.90;;;;;;4905885;29;20095;-83